Time;durP1;ratioP1;P1;durP2;ratioP2;P2;SDS_P1;SDS_P2;PMS_P1;PMS_P2;Temp;Humidity;BMP_temperature;BMP_pressure;BME280_temperature;BME280_humidity;BME280_pressure;Samples;Min_cycle;Max_cycle;Signal;HPM_P1;HPM_P2
2021/08/31 00:00:54;;;;;;;3.00;2.40;;;;;;;;;;5073830;28;20025;-71
2021/08/31 00:03:21;;;;;;;3.83;2.45;;;;;;;;;;5077911;28;20029;-72
2021/08/31 00:05:47;;;;;;;4.07;2.50;;;;;;;;;;5073505;28;20021;-74
2021/08/31 00:08:13;;;;;;;4.05;2.63;;;;;;;;;;5056839;28;20061;-73
2021/08/31 00:10:39;;;;;;;4.57;2.83;;;;;;;;;;5058477;28;20029;-71
2021/08/31 00:13:06;;;;;;;4.00;2.63;;;;;;;;;;5054641;28;20104;-71
2021/08/31 00:15:32;;;;;;;3.55;2.50;;;;;;;;;;5057886;28;20515;-72
2021/08/31 00:18:02;;;;;;;4.20;2.35;;;;;;;;;;5066245;28;20141;-71
2021/08/31 00:20:28;;;;;;;3.30;2.20;;;;;;;;;;5070097;28;20096;-72
2021/08/31 00:22:55;;;;;;;4.28;2.50;;;;;;;;;;5066840;28;20395;-72
2021/08/31 00:25:21;;;;;;;4.80;3.17;;;;;;;;;;5064116;28;20369;-71
2021/08/31 00:27:47;;;;;;;4.93;2.63;;;;;;;;;;5074925;28;20025;-72
2021/08/31 00:30:13;;;;;;;4.82;2.60;;;;;;;;;;5074535;28;20079;-71
2021/08/31 00:32:39;;;;;;;6.57;2.50;;;;;;;;;;5074579;28;20021;-71
2021/08/31 00:35:06;;;;;;;4.72;2.78;;;;;;;;;;5074386;28;20024;-72
2021/08/31 00:37:32;;;;;;;5.57;3.20;;;;;;;;;;5055452;28;20024;-74
2021/08/31 00:39:58;;;;;;;3.22;2.50;;;;;;;;;;5053538;28;20108;-71
2021/08/31 00:42:24;;;;;;;8.15;2.50;;;;;;;;;;5055256;28;20385;-71
2021/08/31 00:44:51;;;;;;;5.07;2.55;;;;;;;;;;5054200;28;20454;-73
2021/08/31 00:47:17;;;;;;;3.78;2.67;;;;;;;;;;5054703;28;20104;-73
2021/08/31 00:49:43;;;;;;;5.13;3.20;;;;;;;;;;5056878;28;20116;-72
2021/08/31 00:52:09;;;;;;;3.60;2.50;;;;;;;;;;5073996;28;20024;-73
2021/08/31 00:54:36;;;;;;;3.03;2.47;;;;;;;;;;5064683;28;20383;-72
2021/08/31 00:57:04;;;;;;;3.90;2.35;;;;;;;;;;5067943;28;20027;-71
2021/08/31 00:59:31;;;;;;;8.57;3.00;;;;;;;;;;5066363;28;20032;-70
2021/08/31 01:01:57;;;;;;;4.35;2.80;;;;;;;;;;5072973;28;20043;-73
2021/08/31 01:04:24;;;;;;;4.25;2.50;;;;;;;;;;5073788;28;20029;-71
2021/08/31 01:06:52;;;;;;;4.57;2.67;;;;;;;;;;5060396;28;20033;-72
2021/08/31 01:09:18;;;;;;;5.10;3.15;;;;;;;;;;5063341;28;20024;-73
2021/08/31 01:11:46;;;;;;;4.50;3.00;;;;;;;;;;5060476;28;20041;-71
2021/08/31 01:14:12;;;;;;;3.40;2.30;;;;;;;;;;5061966;28;20056;-72
2021/08/31 01:16:38;;;;;;;4.18;2.40;;;;;;;;;;5063581;28;20431;-72
2021/08/31 01:19:05;;;;;;;3.92;2.47;;;;;;;;;;5062598;28;20059;-71
2021/08/31 01:21:31;;;;;;;6.28;2.85;;;;;;;;;;5065928;28;20033;-70
2021/08/31 01:23:58;;;;;;;4.93;2.50;;;;;;;;;;5073404;28;20116;-72
2021/08/31 01:26:24;;;;;;;4.28;2.35;;;;;;;;;;5065905;28;20415;-71
2021/08/31 01:28:51;;;;;;;6.53;3.05;;;;;;;;;;5069627;28;20130;-73
2021/08/31 01:31:17;;;;;;;5.63;2.55;;;;;;;;;;5065324;28;20012;-71
2021/08/31 01:33:43;;;;;;;5.72;3.15;;;;;;;;;;5073180;28;20020;-71
2021/08/31 01:36:17;;;;;;;4.88;2.80;;;;;;;;;;5072414;28;20091;-71
2021/08/31 01:38:43;;;;;;;4.60;2.55;;;;;;;;;;5071203;28;20024;-72
2021/08/31 01:41:11;;;;;;;4.10;2.50;;;;;;;;;;5054646;28;20033;-71
2021/08/31 01:43:37;;;;;;;5.22;2.45;;;;;;;;;;5053415;28;20070;-72
2021/08/31 01:46:03;;;;;;;6.45;2.65;;;;;;;;;;5058394;28;20029;-72
2021/08/31 01:48:29;;;;;;;4.43;2.53;;;;;;;;;;5073188;28;20059;-72
2021/08/31 01:50:55;;;;;;;7.18;3.00;;;;;;;;;;5062356;28;20025;-72
2021/08/31 01:53:21;;;;;;;4.13;2.40;;;;;;;;;;5073739;28;20043;-71
2021/08/31 01:55:47;;;;;;;4.60;2.45;;;;;;;;;;5069391;28;20095;-72
2021/08/31 01:58:13;;;;;;;5.47;2.58;;;;;;;;;;5071844;28;20032;-70
2021/08/31 02:00:39;;;;;;;3.03;2.15;;;;;;;;;;5061363;28;20106;-71
2021/08/31 02:03:05;;;;;;;4.70;2.45;;;;;;;;;;5071760;28;20112;-71
2021/08/31 02:05:31;;;;;;;7.28;2.65;;;;;;;;;;5073760;28;20024;-71
2021/08/31 02:07:57;;;;;;;3.28;2.33;;;;;;;;;;5073373;28;20028;-72
2021/08/31 02:10:23;;;;;;;6.45;3.13;;;;;;;;;;5067480;28;20025;-71
2021/08/31 02:12:50;;;;;;;3.95;2.38;;;;;;;;;;5072329;28;20064;-72
2021/08/31 02:15:16;;;;;;;4.70;2.90;;;;;;;;;;5071981;28;20086;-72
2021/08/31 02:17:42;;;;;;;5.18;2.65;;;;;;;;;;5066915;28;20029;-72
2021/08/31 02:20:09;;;;;;;3.63;2.30;;;;;;;;;;5067710;28;20035;-71
2021/08/31 02:22:35;;;;;;;3.70;2.38;;;;;;;;;;5054603;28;20041;-71
2021/08/31 02:25:01;;;;;;;6.45;2.75;;;;;;;;;;5052841;28;20025;-71
2021/08/31 02:27:27;;;;;;;6.15;2.70;;;;;;;;;;5061238;28;20029;-71
2021/08/31 02:29:53;;;;;;;4.05;2.65;;;;;;;;;;5058116;28;20029;-72
2021/08/31 02:32:20;;;;;;;5.88;3.70;;;;;;;;;;5074578;28;20016;-70
2021/08/31 02:34:46;;;;;;;4.22;2.53;;;;;;;;;;5081229;28;20017;-71
2021/08/31 02:37:12;;;;;;;6.10;2.42;;;;;;;;;;5077500;28;20529;-74
2021/08/31 02:39:38;;;;;;;4.07;3.10;;;;;;;;;;5075405;28;20064;-71
2021/08/31 02:42:05;;;;;;;4.30;3.03;;;;;;;;;;5072290;28;20029;-73
2021/08/31 02:44:31;;;;;;;4.95;2.70;;;;;;;;;;5063807;28;20039;-72
2021/08/31 02:46:57;;;;;;;5.68;3.00;;;;;;;;;;5068135;28;20079;-71
2021/08/31 02:49:23;;;;;;;6.90;3.00;;;;;;;;;;5072241;28;20035;-71
2021/08/31 02:51:49;;;;;;;5.82;3.20;;;;;;;;;;5065654;28;20060;-72
2021/08/31 02:54:15;;;;;;;11.02;3.28;;;;;;;;;;5075528;28;20078;-70
2021/08/31 02:56:41;;;;;;;7.03;2.92;;;;;;;;;;5068505;28;20078;-71
2021/08/31 02:59:07;;;;;;;6.35;3.53;;;;;;;;;;5076115;28;20028;-71
2021/08/31 03:01:34;;;;;;;4.60;2.90;;;;;;;;;;5065539;28;20059;-68
2021/08/31 03:04:01;;;;;;;6.07;2.88;;;;;;;;;;5078707;28;20043;-71
2021/08/31 03:06:27;;;;;;;7.30;3.30;;;;;;;;;;5080776;28;20059;-72
2021/08/31 03:08:54;;;;;;;9.13;2.92;;;;;;;;;;5077337;28;20047;-72
2021/08/31 03:11:20;;;;;;;10.35;4.03;;;;;;;;;;5073060;28;20044;-73
2021/08/31 03:13:46;;;;;;;8.77;4.03;;;;;;;;;;5078468;28;20025;-71
2021/08/31 03:16:13;;;;;;;6.60;3.63;;;;;;;;;;5067565;28;20029;-73
2021/08/31 03:18:41;;;;;;;4.93;2.80;;;;;;;;;;5065219;28;20503;-72
2021/08/31 03:21:07;;;;;;;7.53;2.85;;;;;;;;;;5067370;28;20035;-71
2021/08/31 03:23:34;;;;;;;11.10;3.50;;;;;;;;;;5058205;28;20021;-71
2021/08/31 03:26:03;;;;;;;7.63;3.17;;;;;;;;;;5069145;28;20036;-74
2021/08/31 03:28:29;;;;;;;6.28;3.22;;;;;;;;;;5059599;28;20020;-73
2021/08/31 03:30:56;;;;;;;7.60;3.70;;;;;;;;;;5068036;28;20037;-72
2021/08/31 03:33:22;;;;;;;7.05;3.08;;;;;;;;;;5065538;28;20443;-73
2021/08/31 03:35:48;;;;;;;5.38;2.80;;;;;;;;;;5075432;28;20024;-73
2021/08/31 03:38:14;;;;;;;5.93;2.97;;;;;;;;;;5075634;28;20046;-74
2021/08/31 03:40:40;;;;;;;7.85;3.40;;;;;;;;;;5073070;28;20070;-72
2021/08/31 03:43:06;;;;;;;5.75;3.08;;;;;;;;;;5072955;28;20365;-71
2021/08/31 03:45:32;;;;;;;8.40;2.88;;;;;;;;;;5071131;28;20473;-73
2021/08/31 03:47:58;;;;;;;5.72;2.85;;;;;;;;;;5055980;28;20391;-71
2021/08/31 03:50:24;;;;;;;8.88;3.70;;;;;;;;;;5063121;28;20126;-74
2021/08/31 03:52:50;;;;;;;5.88;3.00;;;;;;;;;;5072868;28;20036;-73
2021/08/31 03:55:16;;;;;;;4.68;3.30;;;;;;;;;;5075120;28;20020;-73
2021/08/31 03:57:42;;;;;;;7.90;3.25;;;;;;;;;;5062460;28;20024;-73
2021/08/31 04:00:09;;;;;;;5.63;2.97;;;;;;;;;;5069775;28;20037;-73
2021/08/31 04:02:36;;;;;;;5.45;2.90;;;;;;;;;;5065414;28;20356;-70
2021/08/31 04:05:02;;;;;;;5.18;3.33;;;;;;;;;;5077898;28;20035;-71
2021/08/31 04:07:29;;;;;;;7.22;3.20;;;;;;;;;;5075346;28;20472;-71
2021/08/31 04:09:55;;;;;;;8.35;3.05;;;;;;;;;;5074793;28;20115;-71
2021/08/31 04:12:21;;;;;;;6.40;3.08;;;;;;;;;;5066319;28;20399;-72
2021/08/31 04:14:47;;;;;;;6.45;2.92;;;;;;;;;;5074248;28;20056;-71
2021/08/31 04:17:14;;;;;;;9.23;3.13;;;;;;;;;;5062188;28;20028;-72
2021/08/31 04:19:40;;;;;;;6.30;2.60;;;;;;;;;;5063258;28;20496;-72
2021/08/31 04:22:06;;;;;;;5.45;2.42;;;;;;;;;;5058515;28;20498;-71
2021/08/31 04:24:33;;;;;;;4.22;3.20;;;;;;;;;;5055130;28;20419;-71
2021/08/31 04:26:59;;;;;;;6.30;2.60;;;;;;;;;;5074320;28;20095;-72
2021/08/31 04:29:25;;;;;;;5.22;2.75;;;;;;;;;;5073286;28;20032;-70
2021/08/31 04:31:51;;;;;;;6.32;3.25;;;;;;;;;;5061381;28;20541;-71
2021/08/31 04:34:17;;;;;;;6.13;2.60;;;;;;;;;;5065980;28;20426;-71
2021/08/31 04:36:43;;;;;;;5.85;2.30;;;;;;;;;;5075562;28;20068;-71
2021/08/31 04:39:09;;;;;;;5.03;2.65;;;;;;;;;;5071226;28;20069;-71
2021/08/31 04:41:35;;;;;;;5.40;2.70;;;;;;;;;;5059852;28;20024;-71
2021/08/31 04:44:01;;;;;;;3.30;2.65;;;;;;;;;;5056908;28;20541;-71
2021/08/31 04:46:27;;;;;;;5.10;2.65;;;;;;;;;;5055794;28;20504;-71
2021/08/31 04:48:54;;;;;;;5.28;2.60;;;;;;;;;;5063357;28;20073;-71
2021/08/31 04:51:20;;;;;;;4.57;2.70;;;;;;;;;;5064580;28;20028;-72
2021/08/31 04:53:46;;;;;;;4.32;3.08;;;;;;;;;;5059390;28;20028;-71
2021/08/31 04:56:12;;;;;;;3.63;3.05;;;;;;;;;;5058933;28;20020;-71
2021/08/31 04:58:38;;;;;;;9.02;3.35;;;;;;;;;;5074432;28;20040;-72
2021/08/31 05:01:04;;;;;;;3.00;2.58;;;;;;;;;;5062879;28;20487;-72
2021/08/31 05:03:30;;;;;;;4.40;2.83;;;;;;;;;;5063107;28;20239;-70
2021/08/31 05:05:56;;;;;;;4.93;2.88;;;;;;;;;;5075950;28;20021;-72
2021/08/31 05:08:22;;;;;;;7.20;2.60;;;;;;;;;;5073790;28;20024;-71
2021/08/31 05:10:49;;;;;;;5.30;3.20;;;;;;;;;;5067567;28;20103;-72
2021/08/31 05:13:15;;;;;;;4.57;2.85;;;;;;;;;;5055478;28;20021;-71
2021/08/31 05:15:41;;;;;;;5.20;2.75;;;;;;;;;;5053984;28;20025;-70
2021/08/31 05:18:07;;;;;;;5.60;3.28;;;;;;;;;;5068753;28;20383;-71
2021/08/31 05:20:33;;;;;;;5.78;2.97;;;;;;;;;;5056457;28;20093;-68
2021/08/31 05:23:01;;;;;;;5.07;2.75;;;;;;;;;;5058796;28;20033;-71
2021/08/31 05:25:27;;;;;;;8.73;3.15;;;;;;;;;;5071923;28;20077;-72
2021/08/31 05:27:54;;;;;;;6.10;2.78;;;;;;;;;;5073309;28;20028;-72
2021/08/31 05:30:20;;;;;;;7.68;3.20;;;;;;;;;;5063597;28;20056;-72
2021/08/31 05:32:46;;;;;;;6.80;2.90;;;;;;;;;;5054830;28;20017;-72
2021/08/31 05:35:12;;;;;;;5.20;3.00;;;;;;;;;;5078082;28;20028;-73
2021/08/31 05:37:41;;;;;;;10.93;3.75;;;;;;;;;;5073524;28;20029;-73
2021/08/31 05:40:07;;;;;;;5.18;2.70;;;;;;;;;;5073058;28;20028;-72
2021/08/31 05:42:33;;;;;;;4.97;3.10;;;;;;;;;;5057026;28;20025;-72
2021/08/31 05:45:00;;;;;;;3.75;2.63;;;;;;;;;;5056536;28;20067;-71
2021/08/31 05:47:26;;;;;;;3.55;2.63;;;;;;;;;;5053234;28;20024;-72
2021/08/31 05:49:52;;;;;;;4.95;3.20;;;;;;;;;;5053706;28;20068;-73
2021/08/31 05:52:18;;;;;;;9.13;2.95;;;;;;;;;;5058457;28;20025;-75
2021/08/31 05:54:44;;;;;;;6.50;2.72;;;;;;;;;;5067161;28;20024;-73
2021/08/31 05:57:10;;;;;;;8.27;4.03;;;;;;;;;;5068730;28;20056;-72
2021/08/31 05:59:39;;;;;;;7.80;3.53;;;;;;;;;;5071517;28;20032;-73
2021/08/31 06:02:05;;;;;;;4.43;2.80;;;;;;;;;;5072628;28;20032;-71
2021/08/31 06:04:32;;;;;;;4.53;2.90;;;;;;;;;;5066906;28;20032;-69
2021/08/31 06:06:58;;;;;;;4.47;2.75;;;;;;;;;;5074160;28;20418;-70
2021/08/31 06:09:24;;;;;;;4.65;2.95;;;;;;;;;;5073393;28;20091;-74
2021/08/31 06:11:51;;;;;;;5.28;3.20;;;;;;;;;;5071450;28;20089;-72
2021/08/31 06:14:18;;;;;;;7.78;3.20;;;;;;;;;;5069651;28;20066;-71
2021/08/31 06:16:44;;;;;;;5.45;3.45;;;;;;;;;;5062597;28;20033;-70
2021/08/31 06:19:10;;;;;;;5.78;3.55;;;;;;;;;;5057955;28;20090;-71
2021/08/31 06:21:36;;;;;;;3.83;3.05;;;;;;;;;;5053773;28;20020;-70
2021/08/31 06:24:02;;;;;;;4.07;2.90;;;;;;;;;;5054830;28;20029;-71
2021/08/31 06:26:28;;;;;;;5.68;3.15;;;;;;;;;;5058874;28;20025;-72
2021/08/31 06:28:54;;;;;;;3.65;2.92;;;;;;;;;;5055843;28;20056;-72
2021/08/31 06:31:20;;;;;;;6.78;2.97;;;;;;;;;;5068224;28;20085;-73
2021/08/31 06:33:49;;;;;;;5.18;2.97;;;;;;;;;;5068361;28;20025;-77
2021/08/31 06:36:16;;;;;;;3.35;2.47;;;;;;;;;;5073812;28;20391;-70
2021/08/31 06:38:42;;;;;;;5.28;3.30;;;;;;;;;;5072008;28;20434;-71
2021/08/31 06:41:08;;;;;;;5.93;2.70;;;;;;;;;;5062705;28;20387;-73
2021/08/31 06:43:34;;;;;;;5.50;2.30;;;;;;;;;;5094227;28;20020;-72
2021/08/31 06:46:00;;;;;;;5.93;3.13;;;;;;;;;;5088140;28;20483;-71
2021/08/31 06:48:27;;;;;;;5.25;2.38;;;;;;;;;;5054616;28;20483;-72
2021/08/31 06:50:53;;;;;;;3.63;2.47;;;;;;;;;;5054850;28;20029;-71
2021/08/31 06:53:19;;;;;;;3.17;2.40;;;;;;;;;;5066071;28;20515;-71
2021/08/31 06:55:45;;;;;;;4.38;2.25;;;;;;;;;;5072108;28;20028;-73
2021/08/31 06:58:11;;;;;;;5.28;2.55;;;;;;;;;;5070766;28;20025;-72
2021/08/31 07:00:37;;;;;;;3.20;2.10;;;;;;;;;;5062122;28;20411;-72
2021/08/31 07:03:03;;;;;;;2.70;2.25;;;;;;;;;;5054738;28;20032;-70
2021/08/31 07:05:29;;;;;;;11.82;3.20;;;;;;;;;;5063780;28;20123;-72
2021/08/31 07:07:55;;;;;;;2.88;2.15;;;;;;;;;;5073339;28;20150;-70
2021/08/31 07:10:21;;;;;;;3.90;2.00;;;;;;;;;;5070356;28;20032;-71
2021/08/31 07:12:47;;;;;;;3.03;1.80;;;;;;;;;;5058951;28;20076;-72
2021/08/31 07:15:13;;;;;;;4.10;1.90;;;;;;;;;;5075881;28;20430;-70
2021/08/31 07:17:41;;;;;;;5.22;2.47;;;;;;;;;;5057456;28;20083;-72
2021/08/31 07:20:07;;;;;;;3.45;2.13;;;;;;;;;;5066959;28;20029;-72
2021/08/31 07:22:33;;;;;;;3.55;2.28;;;;;;;;;;5076679;28;20098;-71
2021/08/31 07:24:59;;;;;;;4.65;2.42;;;;;;;;;;5075122;28;20060;-72
2021/08/31 07:27:25;;;;;;;4.80;2.80;;;;;;;;;;5061127;28;20068;-71
2021/08/31 07:29:55;;;;;;;3.78;2.60;;;;;;;;;;5078523;28;20497;-74
2021/08/31 07:32:21;;;;;;;5.10;2.88;;;;;;;;;;5078059;28;20017;-70
2021/08/31 07:34:47;;;;;;;4.70;3.05;;;;;;;;;;5076108;28;20028;-71
2021/08/31 07:37:13;;;;;;;5.45;3.30;;;;;;;;;;5079525;28;20050;-72
2021/08/31 07:39:39;;;;;;;5.75;3.30;;;;;;;;;;5076703;28;20032;-72
2021/08/31 07:42:06;;;;;;;4.85;3.08;;;;;;;;;;5064788;28;20476;-73
2021/08/31 07:44:32;;;;;;;5.22;3.33;;;;;;;;;;5060459;28;20391;-73
2021/08/31 07:46:58;;;;;;;5.18;3.20;;;;;;;;;;5060465;28;20037;-73
2021/08/31 07:49:24;;;;;;;5.20;3.22;;;;;;;;;;5056732;28;20487;-73
2021/08/31 07:51:50;;;;;;;7.05;2.90;;;;;;;;;;5061820;28;20614;-71
2021/08/31 07:54:16;;;;;;;5.28;3.80;;;;;;;;;;5064380;28;20025;-72
2021/08/31 07:56:42;;;;;;;9.57;3.30;;;;;;;;;;5070023;28;20057;-73
2021/08/31 07:59:08;;;;;;;3.75;3.00;;;;;;;;;;5065463;28;20078;-71
2021/08/31 08:01:35;;;;;;;6.50;3.28;;;;;;;;;;5063884;28;20058;-74
2021/08/31 08:04:01;;;;;;;6.50;2.95;;;;;;;;;;5060278;28;20029;-72
2021/08/31 08:06:27;;;;;;;5.05;3.55;;;;;;;;;;5065790;28;20415;-70
2021/08/31 08:08:55;;;;;;;6.32;3.20;;;;;;;;;;5074876;28;20452;-72
2021/08/31 08:11:21;;;;;;;5.97;3.45;;;;;;;;;;5075870;28;20037;-73
2021/08/31 08:13:47;;;;;;;8.98;3.78;;;;;;;;;;5074031;28;20020;-71
2021/08/31 08:16:13;;;;;;;7.55;3.47;;;;;;;;;;5075995;28;20074;-70
2021/08/31 08:18:39;;;;;;;9.20;4.43;;;;;;;;;;5062483;28;20021;-72
2021/08/31 08:21:06;;;;;;;7.25;3.88;;;;;;;;;;5065691;28;20029;-70
2021/08/31 08:23:32;;;;;;;6.55;3.58;;;;;;;;;;5068982;28;20021;-73
2021/08/31 08:25:58;;;;;;;5.22;3.45;;;;;;;;;;5063327;28;20029;-70
2021/08/31 08:28:25;;;;;;;4.30;3.15;;;;;;;;;;5063963;28;20476;-72
2021/08/31 08:30:51;;;;;;;7.18;3.60;;;;;;;;;;5066723;28;20396;-72
2021/08/31 08:33:17;;;;;;;6.53;3.60;;;;;;;;;;5066360;28;20379;-71
2021/08/31 08:35:44;;;;;;;4.90;3.30;;;;;;;;;;5071923;28;20024;-72
2021/08/31 08:38:10;;;;;;;6.85;4.07;;;;;;;;;;5075086;28;20017;-73
2021/08/31 08:40:36;;;;;;;6.22;3.35;;;;;;;;;;5074609;28;20495;-72
2021/08/31 08:43:03;;;;;;;6.47;3.80;;;;;;;;;;5074722;28;20028;-73
2021/08/31 08:45:29;;;;;;;7.30;3.33;;;;;;;;;;5075827;28;20020;-72
2021/08/31 08:47:55;;;;;;;5.00;3.40;;;;;;;;;;5074360;28;20068;-72
2021/08/31 08:50:21;;;;;;;6.10;3.55;;;;;;;;;;5073883;28;20039;-72
2021/08/31 08:52:47;;;;;;;6.75;3.22;;;;;;;;;;5074446;28;20029;-72
2021/08/31 08:55:13;;;;;;;14.00;3.97;;;;;;;;;;5074356;28;20025;-72
2021/08/31 08:57:40;;;;;;;3.75;2.70;;;;;;;;;;5074499;28;20102;-71
2021/08/31 09:00:07;;;;;;;8.25;3.63;;;;;;;;;;5074488;28;20025;-72
2021/08/31 09:02:34;;;;;;;4.03;3.17;;;;;;;;;;5073931;28;20032;-71
2021/08/31 09:05:00;;;;;;;4.82;3.50;;;;;;;;;;5074140;28;20070;-74
2021/08/31 09:07:30;;;;;;;6.10;3.58;;;;;;;;;;5072925;28;20426;-73
2021/08/31 09:10:14;;;;;;;7.25;3.50;;;;;;;;;;5074007;28;20051;-72
2021/08/31 09:12:41;;;;;;;3.95;2.90;;;;;;;;;;5074131;28;20138;-74
2021/08/31 09:15:27;;;;;;;5.95;3.55;;;;;;;;;;5074658;28;20017;-71
2021/08/31 09:20:52;;;;;;;4.95;3.17;;;;;;;;;;5073632;28;20031;-72
2021/08/31 09:23:19;;;;;;;4.97;2.88;;;;;;;;;;5066705;28;20430;-72
2021/08/31 09:25:46;;;;;;;4.03;2.83;;;;;;;;;;5073593;28;20031;-72
2021/08/31 09:28:25;;;;;;;4.50;2.88;;;;;;;;;;5073871;28;20032;-72
2021/08/31 09:30:57;;;;;;;6.13;3.08;;;;;;;;;;5073040;28;20495;-72
2021/08/31 09:33:24;;;;;;;4.32;2.83;;;;;;;;;;5073650;28;20052;-72
2021/08/31 09:36:01;;;;;;;3.10;2.78;;;;;;;;;;5073433;28;20025;-74
2021/08/31 09:38:38;;;;;;;4.72;3.10;;;;;;;;;;5071894;28;20052;-72
2021/08/31 09:41:04;;;;;;;4.32;3.10;;;;;;;;;;5073509;28;20579;-74
2021/08/31 09:43:30;;;;;;;5.05;2.90;;;;;;;;;;5073452;28;20052;-72
2021/08/31 09:45:56;;;;;;;4.38;3.20;;;;;;;;;;5073653;28;20020;-71
2021/08/31 09:48:23;;;;;;;3.38;2.58;;;;;;;;;;5071864;28;20115;-72
2021/08/31 09:50:53;;;;;;;3.33;2.80;;;;;;;;;;5073144;28;20028;-72
2021/08/31 09:53:20;;;;;;;3.88;3.13;;;;;;;;;;5071888;28;20399;-72
2021/08/31 09:55:48;;;;;;;8.95;3.38;;;;;;;;;;5071786;28;20025;-73
2021/08/31 09:58:15;;;;;;;6.07;3.55;;;;;;;;;;5073160;28;20099;-71
2021/08/31 10:00:42;;;;;;;8.30;3.00;;;;;;;;;;5072874;28;20532;-71
2021/08/31 10:03:09;;;;;;;4.95;2.90;;;;;;;;;;5072779;28;20025;-72
2021/08/31 10:05:35;;;;;;;7.07;3.30;;;;;;;;;;5074599;28;20021;-72
2021/08/31 10:08:02;;;;;;;4.65;3.22;;;;;;;;;;5072891;28;20031;-72
2021/08/31 10:10:29;;;;;;;4.40;3.15;;;;;;;;;;5073147;28;20024;-71
2021/08/31 10:12:57;;;;;;;3.83;2.72;;;;;;;;;;5072653;28;20067;-72
2021/08/31 10:15:23;;;;;;;5.50;3.00;;;;;;;;;;5074127;28;20028;-71
2021/08/31 10:17:53;;;;;;;4.70;2.70;;;;;;;;;;5073696;28;20044;-72
2021/08/31 10:20:43;;;;;;;5.43;3.92;;;;;;;;;;5072703;28;20036;-71
2021/08/31 10:23:09;;;;;;;4.28;2.70;;;;;;;;;;5072800;28;20020;-72
2021/08/31 10:25:35;;;;;;;6.63;3.33;;;;;;;;;;5073875;28;20104;-72
2021/08/31 10:28:01;;;;;;;3.63;2.80;;;;;;;;;;5073339;28;20028;-72
2021/08/31 10:30:30;;;;;;;4.68;2.97;;;;;;;;;;5072824;28;20020;-72
2021/08/31 10:32:57;;;;;;;4.32;2.85;;;;;;;;;;5073421;28;20029;-72
2021/08/31 10:35:36;;;;;;;3.83;2.97;;;;;;;;;;5078208;28;20021;-72
2021/08/31 10:38:06;;;;;;;3.45;2.53;;;;;;;;;;5072940;28;20051;-72
2021/08/31 10:40:33;;;;;;;5.90;3.42;;;;;;;;;;5072660;28;20035;-72
2021/08/31 10:42:59;;;;;;;4.88;2.70;;;;;;;;;;5071440;28;20441;-71
2021/08/31 10:45:25;;;;;;;4.70;2.58;;;;;;;;;;5071250;28;20035;-72
2021/08/31 10:47:52;;;;;;;4.78;3.08;;;;;;;;;;5072634;28;20029;-72
2021/08/31 10:50:23;;;;;;;4.22;3.00;;;;;;;;;;5072964;28;20112;-72
2021/08/31 10:53:01;;;;;;;7.20;3.40;;;;;;;;;;5073752;28;20032;-71
2021/08/31 10:55:27;;;;;;;5.80;2.83;;;;;;;;;;5076663;28;20372;-73
2021/08/31 10:57:57;;;;;;;5.10;2.70;;;;;;;;;;5076470;28;20025;-72
2021/08/31 11:00:28;;;;;;;7.90;3.35;;;;;;;;;;5076418;28;20104;-72
2021/08/31 11:02:56;;;;;;;4.97;2.90;;;;;;;;;;5075683;28;20040;-72
2021/08/31 11:05:26;;;;;;;5.38;3.22;;;;;;;;;;5075706;28;20440;-71
2021/08/31 11:07:59;;;;;;;5.90;3.20;;;;;;;;;;5075917;28;20024;-75
2021/08/31 11:10:27;;;;;;;6.53;3.67;;;;;;;;;;5075565;28;20035;-73
2021/08/31 11:12:53;;;;;;;6.10;3.08;;;;;;;;;;5075527;28;20033;-73
2021/08/31 11:15:20;;;;;;;5.03;2.70;;;;;;;;;;5075511;28;20025;-71
2021/08/31 11:17:48;;;;;;;5.03;3.08;;;;;;;;;;5076099;28;20024;-71
2021/08/31 11:20:16;;;;;;;6.55;2.75;;;;;;;;;;5075816;28;20039;-72
2021/08/31 11:22:43;;;;;;;5.15;2.95;;;;;;;;;;5075827;28;20025;-72
2021/08/31 11:25:10;;;;;;;3.75;2.75;;;;;;;;;;5076184;28;20124;-71
2021/08/31 11:28:08;;;;;;;4.35;2.95;;;;;;;;;;5075722;28;20594;-72
2021/08/31 11:30:53;;;;;;;5.53;3.15;;;;;;;;;;5064674;28;20514;-72
2021/08/31 11:33:20;;;;;;;4.90;2.90;;;;;;;;;;5075444;28;20519;-73
2021/08/31 11:35:52;;;;;;;4.43;2.92;;;;;;;;;;5077928;28;20029;-75
2021/08/31 11:38:28;;;;;;;7.85;3.50;;;;;;;;;;5075565;28;20020;-74
2021/08/31 11:40:55;;;;;;;5.03;3.03;;;;;;;;;;5076419;28;20033;-73
2021/08/31 11:43:30;;;;;;;5.35;3.40;;;;;;;;;;5075255;28;20055;-72
2021/08/31 11:45:57;;;;;;;5.00;3.08;;;;;;;;;;5075359;28;20032;-76
2021/08/31 11:48:26;;;;;;;5.43;3.42;;;;;;;;;;5075513;28;20468;-71
2021/08/31 11:50:59;;;;;;;5.43;3.50;;;;;;;;;;5074932;28;20036;-71
2021/08/31 11:53:25;;;;;;;5.97;3.30;;;;;;;;;;5075189;28;20103;-73
2021/08/31 11:55:55;;;;;;;5.82;3.60;;;;;;;;;;5075493;28;20430;-71
2021/08/31 11:58:21;;;;;;;7.10;3.28;;;;;;;;;;5075953;28;20035;-72
2021/08/31 12:00:48;;;;;;;4.75;2.90;;;;;;;;;;5075131;28;20056;-72
2021/08/31 12:03:22;;;;;;;5.63;2.78;;;;;;;;;;5075112;28;20064;-72
2021/08/31 12:05:49;;;;;;;6.05;3.10;;;;;;;;;;5073781;28;20020;-71
2021/08/31 12:08:16;;;;;;;6.10;2.78;;;;;;;;;;5075103;28;20025;-72
2021/08/31 12:10:42;;;;;;;4.07;3.15;;;;;;;;;;5075102;28;20020;-73
2021/08/31 12:13:08;;;;;;;4.85;3.45;;;;;;;;;;5075200;28;20036;-72
2021/08/31 12:15:34;;;;;;;3.83;2.78;;;;;;;;;;5075030;28;20035;-71
2021/08/31 12:18:01;;;;;;;5.65;3.40;;;;;;;;;;5075224;28;20028;-73
2021/08/31 12:20:28;;;;;;;4.30;2.78;;;;;;;;;;5074925;28;20024;-74
2021/08/31 12:22:57;;;;;;;4.60;2.85;;;;;;;;;;5074258;28;20055;-72
2021/08/31 12:25:23;;;;;;;6.50;3.83;;;;;;;;;;5075247;28;20021;-70
2021/08/31 12:27:51;;;;;;;4.82;3.50;;;;;;;;;;5076322;28;20028;-70
2021/08/31 12:30:18;;;;;;;4.22;2.80;;;;;;;;;;5079355;28;20038;-72
2021/08/31 12:32:53;;;;;;;5.68;3.22;;;;;;;;;;5079621;28;20025;-73
2021/08/31 12:35:24;;;;;;;4.22;2.75;;;;;;;;;;5076248;28;20078;-74
2021/08/31 12:38:07;;;;;;;4.55;3.17;;;;;;;;;;5074962;28;20028;-73
2021/08/31 12:40:36;;;;;;;5.90;3.05;;;;;;;;;;5080003;28;20016;-72
2021/08/31 12:43:06;;;;;;;5.65;3.40;;;;;;;;;;5085452;28;20056;-72
2021/08/31 12:45:33;;;;;;;4.60;2.65;;;;;;;;;;5075935;28;20024;-74
2021/08/31 12:47:59;;;;;;;4.68;3.28;;;;;;;;;;5076338;28;20032;-74
2021/08/31 12:50:26;;;;;;;6.78;2.67;;;;;;;;;;5075806;28;20031;-74
2021/08/31 12:53:00;;;;;;;6.25;3.50;;;;;;;;;;5076029;28;20031;-70
2021/08/31 12:55:29;;;;;;;5.30;2.72;;;;;;;;;;5076531;28;20445;-70
2021/08/31 12:57:56;;;;;;;9.07;3.38;;;;;;;;;;5076498;28;20048;-70
2021/08/31 13:00:24;;;;;;;4.45;3.10;;;;;;;;;;5075873;28;20042;-72
2021/08/31 13:02:55;;;;;;;5.00;3.13;;;;;;;;;;5075677;28;20561;-74
2021/08/31 13:05:24;;;;;;;4.40;3.05;;;;;;;;;;5076017;28;20029;-72
2021/08/31 13:07:50;;;;;;;4.13;2.72;;;;;;;;;;5073459;28;20033;-73
2021/08/31 13:10:20;;;;;;;6.55;3.15;;;;;;;;;;5074483;28;20029;-74
2021/08/31 13:12:47;;;;;;;6.18;2.90;;;;;;;;;;5071964;28;20055;-72
2021/08/31 13:15:14;;;;;;;5.25;2.92;;;;;;;;;;5073846;28;20021;-74
2021/08/31 13:17:40;;;;;;;5.60;3.45;;;;;;;;;;5075228;28;20500;-71
2021/08/31 13:20:07;;;;;;;5.95;3.22;;;;;;;;;;5075061;28;20032;-73
2021/08/31 13:22:33;;;;;;;5.05;3.03;;;;;;;;;;5075801;28;20470;-73
2021/08/31 13:24:59;;;;;;;4.85;3.10;;;;;;;;;;5074363;28;20032;-72
2021/08/31 13:27:26;;;;;;;4.10;2.90;;;;;;;;;;5075635;28;20039;-71
2021/08/31 13:29:52;;;;;;;3.42;2.83;;;;;;;;;;5078137;28;20044;-74
2021/08/31 13:32:18;;;;;;;7.07;2.97;;;;;;;;;;5083051;28;20035;-76
2021/08/31 13:34:45;;;;;;;5.32;3.15;;;;;;;;;;5079720;28;20016;-74
2021/08/31 13:37:11;;;;;;;4.35;3.15;;;;;;;;;;5078910;28;20039;-72
2021/08/31 13:39:37;;;;;;;5.72;3.25;;;;;;;;;;5079724;28;20020;-75
2021/08/31 13:42:03;;;;;;;5.38;3.67;;;;;;;;;;5076469;28;20020;-73
2021/08/31 13:44:29;;;;;;;4.82;3.35;;;;;;;;;;5078580;28;20491;-74
2021/08/31 13:46:55;;;;;;;4.38;3.35;;;;;;;;;;5078422;28;20104;-75
2021/08/31 13:49:21;;;;;;;8.20;3.38;;;;;;;;;;5077371;28;20039;-72
2021/08/31 13:51:47;;;;;;;4.55;2.90;;;;;;;;;;5079250;28;20075;-73
2021/08/31 13:54:14;;;;;;;6.03;3.40;;;;;;;;;;5081988;28;20013;-75
2021/08/31 13:56:40;;;;;;;3.65;2.80;;;;;;;;;;5081721;28;20024;-67
2021/08/31 13:59:06;;;;;;;5.13;3.28;;;;;;;;;;5082181;28;20013;-70
2021/08/31 14:01:34;;;;;;;4.03;3.13;;;;;;;;;;5081074;28;20021;-70
2021/08/31 14:04:02;;;;;;;3.70;2.97;;;;;;;;;;5080599;28;20036;-71
2021/08/31 14:06:29;;;;;;;5.07;2.88;;;;;;;;;;5080716;28;20013;-69
2021/08/31 14:08:57;;;;;;;5.40;2.75;;;;;;;;;;5079796;28;20491;-71
2021/08/31 14:11:23;;;;;;;6.95;3.25;;;;;;;;;;5081619;28;20495;-70
2021/08/31 14:13:49;;;;;;;5.82;3.05;;;;;;;;;;5079685;28;20023;-65
2021/08/31 14:16:18;;;;;;;4.35;3.00;;;;;;;;;;5085149;28;20035;-70
2021/08/31 14:18:45;;;;;;;3.95;2.92;;;;;;;;;;5079730;28;20071;-70
2021/08/31 14:21:12;;;;;;;4.22;3.15;;;;;;;;;;5083022;28;20082;-71
2021/08/31 14:23:39;;;;;;;5.63;3.42;;;;;;;;;;5083877;28;20025;-71
2021/08/31 14:26:06;;;;;;;4.90;2.80;;;;;;;;;;5078983;28;20095;-69
2021/08/31 14:28:32;;;;;;;9.82;4.07;;;;;;;;;;5081824;28;20029;-69
2021/08/31 14:30:58;;;;;;;3.90;2.75;;;;;;;;;;5082976;28;20156;-66
2021/08/31 14:33:24;;;;;;;6.55;3.50;;;;;;;;;;5081313;28;20017;-73
2021/08/31 14:35:50;;;;;;;6.15;3.10;;;;;;;;;;5082163;28;20106;-67
2021/08/31 14:38:16;;;;;;;5.18;3.33;;;;;;;;;;5080571;28;20032;-65
2021/08/31 14:40:42;;;;;;;5.93;3.47;;;;;;;;;;5081163;28;20024;-74
2021/08/31 14:43:08;;;;;;;6.68;3.88;;;;;;;;;;5080177;28;20092;-66
2021/08/31 14:45:34;;;;;;;5.40;3.17;;;;;;;;;;5067361;28;20056;-66